Time;durP1;ratioP1;P1;durP2;ratioP2;P2;SDS_P1;SDS_P2;PMS_P1;PMS_P2;Temp;Humidity;BMP_temperature;BMP_pressure;BME280_temperature;BME280_humidity;BME280_pressure;Samples;Min_cycle;Max_cycle;Signal;HPM_P1;HPM_P2
2022/09/25 00:00:57;;;;;;;28.53;26.20;;;;;;;12.73;100.00;101291.19;5034153;28;20474;-46
2022/09/25 00:03:27;;;;;;;26.17;24.23;;;;;;;12.73;100.00;101291.19;5033360;28;21034;-45
2022/09/25 00:06:03;;;;;;;27.33;25.80;;;;;;;12.71;100.00;101291.38;5034263;28;20444;-46
2022/09/25 00:08:32;;;;;;;27.30;25.20;;;;;;;12.67;100.00;101290.13;5034136;28;20439;-47
2022/09/25 00:10:59;;;;;;;26.83;25.33;;;;;;;12.66;100.00;101285.78;5033876;28;20525;-44
2022/09/25 00:13:27;;;;;;;25.77;24.07;;;;;;;12.63;100.00;101290.72;5033241;28;20460;-45
2022/09/25 00:15:56;;;;;;;27.90;25.90;;;;;;;12.58;100.00;101293.97;5033769;28;20925;-45
2022/09/25 00:21:14;;;;;;;27.07;25.67;;;;;;;12.47;100.00;101289.16;5028664;28;20440;-51
2022/09/25 00:23:43;;;;;;;28.90;26.77;;;;;;;12.46;100.00;101292.03;5033252;28;20510;-48
2022/09/25 00:26:12;;;;;;;26.77;25.10;;;;;;;12.40;100.00;101296.31;5033647;28;20825;-48
2022/09/25 00:28:40;;;;;;;26.07;24.30;;;;;;;12.41;100.00;101289.94;5033492;28;20436;-44
2022/09/25 00:31:10;;;;;;;25.87;24.40;;;;;;;12.40;100.00;101288.28;5033290;28;20525;-44
2022/09/25 00:33:38;;;;;;;27.93;25.97;;;;;;;12.31;100.00;101292.13;5033154;28;20825;-46
2022/09/25 00:36:08;;;;;;;27.07;25.30;;;;;;;12.32;100.00;101288.44;5033558;28;20487;-46
2022/09/25 00:38:38;;;;;;;27.17;25.20;;;;;;;12.30;100.00;101289.66;5033462;28;20440;-49
2022/09/25 00:41:07;;;;;;;27.27;25.43;;;;;;;12.31;100.00;101288.63;5033226;28;20432;-45
2022/09/25 00:43:38;;;;;;;28.00;26.10;;;;;;;12.32;100.00;101296.47;5032791;28;20464;-46
2022/09/25 00:46:11;;;;;;;28.10;26.30;;;;;;;12.27;100.00;101290.06;5033419;28;20428;-45
2022/09/25 00:48:48;;;;;;;28.53;26.77;;;;;;;12.27;100.00;101288.22;5035280;28;20440;-46
2022/09/25 00:51:18;;;;;;;28.80;26.70;;;;;;;12.23;100.00;101292.28;5033042;28;20495;-53
2022/09/25 00:53:48;;;;;;;28.80;26.43;;;;;;;12.22;100.00;101295.97;5032681;28;20853;-48
2022/09/25 00:56:16;;;;;;;29.80;27.10;;;;;;;12.19;100.00;101291.84;5032668;28;20478;-48
2022/09/25 00:58:44;;;;;;;28.43;26.07;;;;;;;12.21;100.00;101297.00;5033144;28;20787;-50
2022/09/25 01:01:12;;;;;;;27.20;25.03;;;;;;;12.13;100.00;101295.28;5033029;28;20452;-55
2022/09/25 01:03:45;;;;;;;27.87;25.70;;;;;;;12.18;100.00;101290.16;5032310;28;20460;-46
2022/09/25 01:06:14;;;;;;;27.67;25.90;;;;;;;12.18;100.00;101292.03;5032861;28;20416;-50
2022/09/25 01:08:43;;;;;;;27.30;25.73;;;;;;;12.14;100.00;101288.09;5032749;28;20497;-47
2022/09/25 01:11:12;;;;;;;29.57;27.00;;;;;;;12.11;100.00;101291.16;5032753;28;20588;-45
2022/09/25 01:13:40;;;;;;;26.10;24.33;;;;;;;12.09;100.00;101293.19;5032160;28;20464;-49
2022/09/25 01:16:13;;;;;;;26.00;24.30;;;;;;;12.05;100.00;101290.09;5032781;28;20432;-48
2022/09/25 01:18:52;;;;;;;26.00;24.60;;;;;;;12.03;100.00;101294.81;5031797;28;20474;-48
2022/09/25 01:21:28;;;;;;;27.00;25.50;;;;;;;12.02;100.00;101300.31;5028815;28;20436;-50
2022/09/25 01:24:18;;;;;;;26.07;24.57;;;;;;;11.96;100.00;101287.72;5012232;28;20488;-44
2022/09/25 01:27:06;;;;;;;26.50;24.87;;;;;;;11.97;100.00;101289.41;5012709;28;20436;-45
2022/09/25 01:29:40;;;;;;;27.50;25.77;;;;;;;11.97;100.00;101290.22;5012983;28;20488;-49
2022/09/25 01:32:19;;;;;;;28.20;26.37;;;;;;;11.98;100.00;101285.69;5012321;28;20538;-48
2022/09/25 01:34:55;;;;;;;26.97;25.60;;;;;;;12.00;100.00;101283.66;5012352;28;20453;-52
2022/09/25 01:37:29;;;;;;;25.70;24.40;;;;;;;12.02;100.00;101292.31;5012734;28;20455;-49
2022/09/25 01:40:06;;;;;;;26.40;25.00;;;;;;;12.04;100.00;101288.41;5012571;28;21001;-50
2022/09/25 01:42:40;;;;;;;26.57;24.80;;;;;;;12.06;100.00;101290.91;5012211;28;20449;-47
2022/09/25 01:45:15;;;;;;;25.43;24.27;;;;;;;12.04;100.00;101285.75;5012185;28;20465;-48
2022/09/25 01:47:47;;;;;;;27.30;25.30;;;;;;;12.04;100.00;101291.09;5012604;28;20429;-47
2022/09/25 01:50:18;;;;;;;25.37;24.13;;;;;;;12.06;100.00;101283.72;5012415;28;20429;-56
2022/09/25 01:52:50;;;;;;;25.23;23.67;;;;;;;12.08;100.00;101283.53;5011806;28;20477;-48
2022/09/25 01:55:22;;;;;;;25.03;23.60;;;;;;;12.10;100.00;101284.97;5012392;28;20440;-45
2022/09/25 01:57:56;;;;;;;25.43;24.03;;;;;;;12.10;100.00;101284.13;5012320;28;20484;-45
2022/09/25 02:00:25;;;;;;;25.93;24.43;;;;;;;12.09;100.00;101285.19;5012219;28;20467;-44
2022/09/25 02:02:57;;;;;;;25.17;23.43;;;;;;;12.08;100.00;101294.22;5011732;28;20511;-49
2022/09/25 02:05:29;;;;;;;26.43;24.70;;;;;;;12.08;100.00;101299.56;5012303;28;20790;-44
2022/09/25 02:08:02;;;;;;;26.60;25.10;;;;;;;12.05;100.00;101291.94;5011455;28;20425;-52
2022/09/25 02:10:34;;;;;;;26.63;24.63;;;;;;;12.02;100.00;101292.31;5012013;28;20560;-49
2022/09/25 02:13:07;;;;;;;25.83;24.63;;;;;;;12.01;100.00;101293.31;5011256;28;21059;-44
2022/09/25 02:15:39;;;;;;;27.03;25.17;;;;;;;11.98;100.00;101294.53;5012144;28;20429;-44
2022/09/25 02:21:00;;;;;;;26.10;24.80;;;;;;;11.95;100.00;101297.59;5022609;28;20425;-44
2022/09/25 02:23:36;;;;;;;26.33;24.73;;;;;;;11.89;100.00;101286.84;5031165;28;20468;-50
2022/09/25 02:26:07;;;;;;;27.83;26.30;;;;;;;11.90;100.00;101285.81;5031961;28;20481;-46
2022/09/25 02:28:36;;;;;;;26.50;25.10;;;;;;;11.82;100.00;101284.13;5031816;28;20502;-45
2022/09/25 02:31:10;;;;;;;26.77;25.00;;;;;;;11.84;100.00;101281.25;5031380;28;20429;-44
2022/09/25 02:33:38;;;;;;;26.97;25.47;;;;;;;11.82;100.00;101277.94;5031031;28;20460;-44
2022/09/25 02:36:06;;;;;;;27.50;26.20;;;;;;;11.84;100.00;101275.91;5031833;28;20435;-44
2022/09/25 02:38:35;;;;;;;27.47;25.90;;;;;;;11.82;100.00;101275.28;5031894;28;20425;-44
2022/09/25 02:41:15;;;;;;;26.30;25.00;;;;;;;11.80;100.00;101278.13;5031714;28;20436;-52
2022/09/25 02:43:50;;;;;;;26.43;25.00;;;;;;;11.73;100.00;101276.41;5030953;28;20831;-45
2022/09/25 02:46:29;;;;;;;27.93;26.20;;;;;;;11.71;100.00;101279.25;5048468;22;20424;-41
2022/09/25 02:49:05;;;;;;;27.53;25.93;;;;;;;11.71;100.00;101281.94;5004347;28;20942;-41
2022/09/25 02:51:41;;;;;;;27.40;26.00;;;;;;;11.68;100.00;101272.44;5011892;28;20476;-40
2022/09/25 02:54:19;;;;;;;27.57;25.87;;;;;;;11.65;100.00;101275.47;5011313;28;20468;-42
2022/09/25 02:56:53;;;;;;;27.90;26.00;;;;;;;11.64;100.00;101273.84;5006735;28;20470;-45
2022/09/25 02:59:28;;;;;;;28.40;26.90;;;;;;;11.61;100.00;101276.91;4992278;28;20445;-41
2022/09/25 03:01:58;;;;;;;27.90;26.10;;;;;;;11.60;100.00;101266.41;4992447;28;21001;-42
2022/09/25 03:04:28;;;;;;;27.40;25.87;;;;;;;11.62;100.00;101269.69;4991775;28;20470;-42
2022/09/25 03:06:57;;;;;;;27.57;26.10;;;;;;;11.61;100.00;101268.88;4992495;28;20458;-42
2022/09/25 03:09:24;;;;;;;29.07;26.80;;;;;;;11.58;100.00;101269.28;4994315;28;20496;-41
2022/09/25 03:11:52;;;;;;;27.27;25.87;;;;;;;11.56;100.00;101265.94;4994283;28;20473;-41
2022/09/25 03:14:19;;;;;;;27.70;26.20;;;;;;;11.60;100.00;101266.41;4993351;28;20520;-40
2022/09/25 03:16:50;;;;;;;27.57;26.07;;;;;;;11.59;100.00;101254.03;4993930;28;20453;-40
2022/09/25 03:19:19;;;;;;;27.60;26.10;;;;;;;11.61;100.00;101258.19;4987772;28;20439;-42
2022/09/25 03:21:47;;;;;;;28.20;26.60;;;;;;;11.65;100.00;101258.63;4995376;28;20426;-45
2022/09/25 03:24:15;;;;;;;28.10;26.70;;;;;;;11.68;100.00;101265.47;4995039;28;20524;-46
2022/09/25 03:26:43;;;;;;;27.57;26.17;;;;;;;11.71;100.00;101259.75;4995707;28;20646;-45
2022/09/25 03:29:11;;;;;;;28.47;26.23;;;;;;;11.72;100.00;101264.06;4995947;28;20437;-46
2022/09/25 03:31:41;;;;;;;29.20;27.60;;;;;;;11.72;100.00;101264.91;4995493;28;20496;-43
2022/09/25 03:34:08;;;;;;;28.50;26.90;;;;;;;11.66;100.00;101263.78;4994767;28;20863;-46
2022/09/25 03:36:37;;;;;;;27.83;26.23;;;;;;;11.68;100.00;101263.59;4995352;28;20458;-44
2022/09/25 03:39:05;;;;;;;27.80;26.00;;;;;;;11.72;100.00;101258.72;4995337;28;20492;-46
2022/09/25 03:41:34;;;;;;;28.07;26.20;;;;;;;11.68;100.00;101256.41;4995331;28;20948;-43
2022/09/25 03:44:03;;;;;;;26.70;25.20;;;;;;;11.62;100.00;101257.16;4994679;28;20536;-42
2022/09/25 03:46:33;;;;;;;27.30;25.70;;;;;;;11.64;100.00;101260.50;4995047;28;20457;-46
2022/09/25 03:49:02;;;;;;;28.03;26.50;;;;;;;11.65;100.00;101253.28;4995216;28;20444;-42
2022/09/25 03:51:31;;;;;;;28.30;26.80;;;;;;;11.68;100.00;101262.78;4995262;28;20438;-43
2022/09/25 03:54:02;;;;;;;28.40;26.33;;;;;;;11.71;100.00;101257.09;4994383;28;20991;-44
2022/09/25 03:56:31;;;;;;;28.30;26.70;;;;;;;11.76;100.00;101260.00;4994999;28;20501;-44
2022/09/25 03:58:59;;;;;;;27.67;26.07;;;;;;;11.76;100.00;101262.69;4995106;28;20489;-44
2022/09/25 04:01:28;;;;;;;28.83;26.80;;;;;;;11.79;100.00;101262.28;4995309;28;20500;-45
2022/09/25 04:03:56;;;;;;;27.80;25.87;;;;;;;11.81;100.00;101261.09;4994469;28;20475;-45
2022/09/25 04:06:25;;;;;;;29.50;27.47;;;;;;;11.84;100.00;101257.19;4994811;28;20433;-42
2022/09/25 04:08:54;;;;;;;28.17;26.57;;;;;;;11.87;100.00;101259.47;4994847;28;20442;-43
2022/09/25 04:11:24;;;;;;;27.33;25.93;;;;;;;11.89;100.00;101252.09;4994709;28;20434;-43
2022/09/25 04:13:52;;;;;;;29.33;27.53;;;;;;;11.89;100.00;101254.75;4994060;28;20480;-44
2022/09/25 04:16:20;;;;;;;27.70;25.90;;;;;;;11.87;100.00;101252.28;4994760;28;20842;-44
2022/09/25 04:18:49;;;;;;;30.10;27.70;;;;;;;11.88;100.00;101250.47;4994923;28;20446;-45
2022/09/25 04:21:17;;;;;;;28.87;26.80;;;;;;;11.86;100.00;101247.97;4986508;28;20438;-41
2022/09/25 04:24:46;;;;;;;27.80;25.87;;;;;;;11.88;100.00;101237.94;4993908;28;20474;-42
2022/09/25 04:26:35;;;;;;;28.50;26.80;;;;;;;11.87;100.00;101244.28;4994296;28;20464;-41
2022/09/25 04:29:02;;;;;;;29.80;27.60;;;;;;;11.88;100.00;101239.78;4994620;28;20430;-43
2022/09/25 04:31:31;;;;;;;31.20;28.97;;;;;;;11.88;100.00;101242.44;4993411;28;20484;-42
2022/09/25 04:33:57;;;;;;;28.20;26.60;;;;;;;11.88;100.00;101242.44;4993702;28;20476;-42
2022/09/25 04:36:25;;;;;;;29.10;27.20;;;;;;;11.89;100.00;101244.06;4994046;28;20430;-41
2022/09/25 04:38:52;;;;;;;28.57;26.97;;;;;;;11.88;100.00;101245.94;4994495;28;20496;-46
2022/09/25 04:41:20;;;;;;;30.47;28.40;;;;;;;11.88;100.00;101240.59;4994474;28;20485;-42
2022/09/25 04:43:49;;;;;;;29.40;27.50;;;;;;;11.89;100.00;101244.91;4993544;28;20800;-44
2022/09/25 04:46:17;;;;;;;29.50;27.80;;;;;;;11.89;100.00;101241.41;4993930;28;20438;-47
2022/09/25 04:48:49;;;;;;;29.53;27.83;;;;;;;11.85;100.00;101240.16;4993981;28;20961;-41
2022/09/25 04:51:17;;;;;;;27.33;25.63;;;;;;;11.83;100.00;101236.81;4994389;28;20474;-44
2022/09/25 04:53:46;;;;;;;29.23;27.63;;;;;;;11.83;100.00;101239.50;4993268;28;20540;-44
2022/09/25 04:56:13;;;;;;;29.90;27.80;;;;;;;11.80;100.00;101237.25;4994022;28;20437;-42
2022/09/25 04:58:44;;;;;;;30.40;28.40;;;;;;;11.83;100.00;101244.84;4993907;28;20437;-44
2022/09/25 05:01:13;;;;;;;30.00;28.10;;;;;;;11.83;100.00;101242.16;4993862;28;20466;-41
2022/09/25 05:03:41;;;;;;;30.70;28.70;;;;;;;11.78;100.00;101234.75;4992989;28;20524;-42
2022/09/25 05:06:09;;;;;;;32.33;29.87;;;;;;;11.79;100.00;101243.59;4993724;28;20434;-43
2022/09/25 05:08:37;;;;;;;29.73;28.00;;;;;;;11.77;100.00;101240.28;4993882;28;20442;-42
2022/09/25 05:11:04;;;;;;;30.10;27.90;;;;;;;11.77;100.00;101238.44;4993710;28;20433;-42
2022/09/25 05:13:32;;;;;;;30.37;28.77;;;;;;;11.72;100.00;101235.50;4992728;28;20959;-41
2022/09/25 05:16:00;;;;;;;30.10;28.23;;;;;;;11.68;100.00;101238.75;4993331;28;20438;-42
2022/09/25 05:18:29;;;;;;;29.43;27.67;;;;;;;11.68;100.00;101236.06;4993452;28;20461;-42
2022/09/25 05:20:56;;;;;;;30.83;29.03;;;;;;;11.70;100.00;101231.38;4985392;28;20430;-40
2022/09/25 05:23:24;;;;;;;30.07;28.37;;;;;;;11.65;100.00;101232.75;4992815;28;20533;-41
2022/09/25 05:25:53;;;;;;;32.13;29.23;;;;;;;11.66;100.00;101233.56;4993434;28;20500;-44
2022/09/25 05:28:22;;;;;;;29.87;28.07;;;;;;;11.68;100.00;101241.41;4993170;28;20461;-43
2022/09/25 05:30:50;;;;;;;31.80;29.60;;;;;;;11.72;100.00;101242.69;4993034;28;20473;-44
2022/09/25 05:33:18;;;;;;;31.30;29.40;;;;;;;11.75;100.00;101247.66;4992640;28;20477;-42
2022/09/25 05:35:48;;;;;;;31.90;29.57;;;;;;;11.79;100.00;101249.78;4993198;28;20484;-43
2022/09/25 05:38:15;;;;;;;33.03;30.97;;;;;;;11.82;100.00;101248.56;4993094;28;20465;-42
2022/09/25 05:40:43;;;;;;;31.83;29.80;;;;;;;11.88;100.00;101250.47;4993416;28;20441;-43
2022/09/25 05:43:12;;;;;;;31.73;29.47;;;;;;;11.81;100.00;101249.56;4992189;28;20457;-41
2022/09/25 05:45:39;;;;;;;34.73;31.63;;;;;;;11.82;100.00;101254.72;4993229;28;20438;-41
2022/09/25 05:48:08;;;;;;;34.57;31.83;;;;;;;11.83;100.00;101252.84;4992891;28;20478;-43
2022/09/25 05:50:36;;;;;;;33.87;31.50;;;;;;;11.86;100.00;101253.31;4992989;28;20441;-43
2022/09/25 05:53:05;;;;;;;33.03;30.67;;;;;;;11.80;100.00;101250.59;4992260;28;20916;-43
2022/09/25 05:55:33;;;;;;;35.13;32.77;;;;;;;11.72;100.00;101256.88;4991799;28;20434;-42
2022/09/25 05:58:01;;;;;;;35.70;33.27;;;;;;;11.74;100.00;101252.16;4992568;28;20449;-43
2022/09/25 06:00:31;;;;;;;36.63;33.83;;;;;;;11.68;100.00;101260.91;4992804;28;20431;-43
2022/09/25 06:02:59;;;;;;;35.70;33.00;;;;;;;11.70;100.00;101253.59;4992226;28;20784;-43
2022/09/25 06:05:26;;;;;;;38.53;35.83;;;;;;;11.72;100.00;101256.88;4992965;28;20438;-42
2022/09/25 06:07:55;;;;;;;39.80;36.23;;;;;;;11.79;100.00;101256.94;4992643;28;20987;-41
2022/09/25 06:10:25;;;;;;;34.23;32.10;;;;;;;11.82;100.00;101253.91;4992315;28;20437;-43
2022/09/25 06:12:57;;;;;;;35.40;32.80;;;;;;;11.77;100.00;101257.13;4992363;28;20434;-42
2022/09/25 06:15:26;;;;;;;34.90;32.50;;;;;;;11.60;100.00;101264.56;4992853;28;20437;-44
2022/09/25 06:17:54;;;;;;;33.77;31.43;;;;;;;11.50;100.00;101263.19;4990906;28;20461;-40
2022/09/25 06:20:22;;;;;;;33.53;31.50;;;;;;;11.46;100.00;101260.09;4986057;28;20438;-42
2022/09/25 06:22:53;;;;;;;34.57;32.00;;;;;;;11.44;100.00;101259.44;4984098;28;20441;-41
2022/09/25 06:25:22;;;;;;;35.30;32.97;;;;;;;11.39;100.00;101266.38;4992428;28;20434;-43
2022/09/25 06:27:53;;;;;;;35.33;32.73;;;;;;;11.41;100.00;101261.69;4992463;28;20454;-42
2022/09/25 06:30:22;;;;;;;35.30;32.70;;;;;;;11.35;100.00;101259.78;4992541;28;20430;-42
2022/09/25 06:32:56;;;;;;;38.20;35.30;;;;;;;11.35;100.00;101259.78;4991929;28;20453;-43
2022/09/25 06:35:24;;;;;;;37.73;34.90;;;;;;;11.28;100.00;101270.38;4992662;28;20554;-45
2022/09/25 06:37:56;;;;;;;40.57;37.30;;;;;;;11.26;100.00;101261.72;4991635;28;20534;-40
2022/09/25 06:40:25;;;;;;;40.53;37.33;;;;;;;11.29;100.00;101269.34;4992154;28;20434;-46
2022/09/25 06:42:56;;;;;;;42.07;38.73;;;;;;;11.27;100.00;101265.22;4992208;28;20462;-43
2022/09/25 06:45:25;;;;;;;42.07;38.77;;;;;;;11.23;100.00;101267.41;4992518;28;20426;-42
2022/09/25 06:47:56;;;;;;;39.30;36.33;;;;;;;11.16;100.00;101263.88;4992303;28;20466;-45
2022/09/25 06:50:30;;;;;;;39.93;36.83;;;;;;;11.22;100.00;101256.94;4992653;28;20434;-45
2022/09/25 06:52:58;;;;;;;36.33;33.50;;;;;;;11.28;100.00;101258.88;4991182;28;20915;-44
2022/09/25 06:55:26;;;;;;;36.30;33.60;;;;;;;11.38;100.00;101262.88;4994488;28;20871;-44
2022/09/25 06:57:54;;;;;;;36.00;33.63;;;;;;;11.31;100.00;101261.16;4996160;28;20504;-42
2022/09/25 07:00:23;;;;;;;37.30;34.23;;;;;;;11.38;100.00;101264.75;4995982;28;20508;-42
2022/09/25 07:05:36;;;;;;;37.83;34.93;;;;;;;11.38;100.00;101273.56;4996182;28;20472;-44
2022/09/25 07:08:03;;;;;;;35.63;33.03;;;;;;;11.42;100.00;101263.31;4995644;28;20508;-43
2022/09/25 07:10:31;;;;;;;36.70;34.00;;;;;;;11.43;100.00;101281.00;4996077;28;20796;-41
2022/09/25 07:12:59;;;;;;;36.53;33.67;;;;;;;11.35;100.00;101279.28;4995248;28;20499;-43
2022/09/25 07:15:28;;;;;;;36.40;34.00;;;;;;;11.36;100.00;101275.59;4995896;28;20470;-41
2022/09/25 07:17:55;;;;;;;35.37;32.87;;;;;;;11.36;100.00;101264.91;4996030;28;20454;-42
2022/09/25 07:20:23;;;;;;;34.10;31.60;;;;;;;11.37;100.00;101276.44;4989824;28;20437;-43
2022/09/25 07:22:53;;;;;;;35.30;32.80;;;;;;;11.33;100.00;101278.63;4987255;28;20437;-42
2022/09/25 07:25:20;;;;;;;34.93;32.33;;;;;;;11.32;100.00;101276.16;4995787;28;20835;-45
2022/09/25 07:27:48;;;;;;;34.57;31.50;;;;;;;11.38;100.00;101286.09;4995246;28;20457;-42
2022/09/25 07:30:16;;;;;;;34.67;32.47;;;;;;;11.43;100.00;101281.00;4995779;28;20434;-42
2022/09/25 07:32:45;;;;;;;35.40;33.00;;;;;;;11.47;100.00;101296.47;4994964;28;20931;-41
2022/09/25 07:35:13;;;;;;;36.20;33.70;;;;;;;11.54;100.00;101292.03;4995245;28;20962;-45
2022/09/25 07:37:40;;;;;;;33.60;31.20;;;;;;;11.55;100.00;101287.50;4995444;28;20852;-43
2022/09/25 07:40:12;;;;;;;35.10;32.80;;;;;;;11.50;100.00;101277.38;4995314;28;20434;-43
2022/09/25 07:42:40;;;;;;;34.83;32.50;;;;;;;11.57;100.00;101270.28;4991942;28;20462;-41
2022/09/25 07:45:09;;;;;;;34.07;31.73;;;;;;;11.71;100.00;101276.59;4994707;28;20450;-40
2022/09/25 07:47:37;;;;;;;35.03;32.77;;;;;;;11.83;100.00;101271.56;4990255;28;20477;-42
2022/09/25 07:50:07;;;;;;;33.43;31.20;;;;;;;11.89;100.00;101278.81;4993742;28;20854;-47
2022/09/25 07:52:41;;;;;;;33.37;31.20;;;;;;;11.91;100.00;101268.78;4993389;28;20465;-42
2022/09/25 07:55:09;;;;;;;34.10;31.77;;;;;;;12.01;100.00;101274.59;4993849;28;20474;-44
2022/09/25 07:57:37;;;;;;;33.03;30.93;;;;;;;12.05;100.00;101268.69;4993672;28;20489;-40
2022/09/25 08:00:05;;;;;;;31.50;29.50;;;;;;;12.15;100.00;101265.69;4993839;28;20442;-41
2022/09/25 08:02:34;;;;;;;33.90;31.80;;;;;;;12.32;100.00;101271.56;4993453;28;20438;-45
2022/09/25 08:05:01;;;;;;;31.30;29.50;;;;;;;12.42;100.00;101267.53;4993763;28;20468;-41
2022/09/25 08:07:30;;;;;;;33.60;31.40;;;;;;;12.54;100.00;101270.50;4994145;28;20457;-42
2022/09/25 08:09:58;;;;;;;32.00;29.83;;;;;;;12.64;100.00;101268.28;4994333;28;20446;-44
2022/09/25 08:12:26;;;;;;;31.27;29.47;;;;;;;12.75;100.00;101268.53;4994179;28;20449;-45
2022/09/25 08:14:54;;;;;;;31.13;29.33;;;;;;;12.89;100.00;101269.44;4993690;28;21204;-44
2022/09/25 08:17:22;;;;;;;32.57;30.67;;;;;;;13.10;100.00;101263.19;4993938;28;20458;-42
2022/09/25 08:19:50;;;;;;;30.47;28.73;;;;;;;13.44;100.00;101264.94;4991053;28;20470;-45
2022/09/25 08:22:17;;;;;;;29.37;27.77;;;;;;;13.46;100.00;101260.19;4989588;28;20430;-42
2022/09/25 08:24:47;;;;;;;29.33;27.53;;;;;;;13.74;100.00;101264.38;4992568;28;20489;-41
2022/09/25 08:27:15;;;;;;;29.93;28.37;;;;;;;13.94;100.00;101263.56;4992844;28;20446;-45
2022/09/25 08:29:42;;;;;;;28.30;26.57;;;;;;;14.00;100.00;101262.75;4993090;28;20441;-43
2022/09/25 08:32:10;;;;;;;27.60;26.20;;;;;;;14.22;100.00;101261.47;4993281;28;21001;-44
2022/09/25 08:34:38;;;;;;;27.80;26.40;;;;;;;14.37;100.00;101262.94;4993460;28;20478;-44
2022/09/25 08:37:08;;;;;;;27.10;25.80;;;;;;;14.57;100.00;101264.78;4994205;28;20826;-41
2022/09/25 08:39:36;;;;;;;27.80;26.50;;;;;;;14.67;100.00;101270.53;4992940;28;20441;-43
2022/09/25 08:42:05;;;;;;;27.10;25.60;;;;;;;14.46;100.00;101263.56;4992766;28;20438;-41
2022/09/25 08:44:37;;;;;;;26.60;25.20;;;;;;;14.27;100.00;101273.25;4992535;28;20520;-41
2022/09/25 08:50:02;;;;;;;27.10;25.80;;;;;;;14.02;100.00;101269.56;4993118;28;20485;-42
2022/09/25 08:52:30;;;;;;;27.13;25.83;;;;;;;13.99;100.00;101263.75;4992367;28;20441;-42
2022/09/25 08:54:58;;;;;;;26.23;24.93;;;;;;;14.05;100.00;101266.44;4992540;28;20529;-44
2022/09/25 08:57:33;;;;;;;27.23;25.67;;;;;;;14.12;100.00;101263.78;4993021;28;20505;-44
2022/09/25 09:00:07;;;;;;;25.70;24.50;;;;;;;13.96;100.00;101273.06;4993175;28;20480;-43
2022/09/25 09:02:41;;;;;;;25.90;24.60;;;;;;;13.91;100.00;101267.50;4992571;28;20855;-42
2022/09/25 09:05:17;;;;;;;26.57;25.10;;;;;;;14.04;100.00;101264.78;4992915;28;20804;-41
2022/09/25 09:07:49;;;;;;;25.30;24.10;;;;;;;14.10;100.00;101265.81;4992684;28;20486;-43
2022/09/25 09:10:27;;;;;;;24.90;23.80;;;;;;;14.11;100.00;101267.47;4992886;28;20863;-41
2022/09/25 09:12:59;;;;;;;25.73;24.43;;;;;;;14.33;100.00;101258.22;4991558;28;20461;-42
2022/09/25 09:15:32;;;;;;;25.10;24.00;;;;;;;14.58;100.00;101261.03;4992680;28;20478;-41
2022/09/25 09:18:05;;;;;;;25.90;24.60;;;;;;;14.65;100.00;101253.81;4992053;28;20904;-41
2022/09/25 09:20:41;;;;;;;24.73;23.70;;;;;;;14.55;100.00;101256.09;4991275;28;20488;-40
2022/09/25 09:23:15;;;;;;;24.43;23.13;;;;;;;14.74;100.00;101249.88;4991029;28;20454;-43
2022/09/25 09:25:50;;;;;;;25.70;24.60;;;;;;;14.83;100.00;101252.13;4992427;28;20429;-41
2022/09/25 09:42:24;;;;;;;23.90;22.80;;;;;;;15.19;99.31;101253.41;5044967;28;20572;-43
2022/09/25 09:45:03;;;;;;;25.40;24.20;;;;;;;15.19;99.49;101253.41;5033172;28;20428;-46
2022/09/25 09:47:40;;;;;;;23.27;22.37;;;;;;;15.08;99.75;101254.09;5027095;28;20444;-44
2022/09/25 09:50:23;;;;;;;24.53;23.17;;;;;;;15.11;100.00;101254.50;5010387;28;21065;-44
2022/09/25 09:52:58;;;;;;;23.60;22.60;;;;;;;15.44;100.00;101251.63;5007293;28;21022;-46
2022/09/25 09:55:33;;;;;;;23.30;22.30;;;;;;;15.48;97.61;101248.31;5008756;28;20436;-45
2022/09/25 09:58:07;;;;;;;23.97;22.97;;;;;;;15.62;98.35;101245.53;5008480;28;20856;-42
2022/09/25 10:00:36;;;;;;;23.73;22.73;;;;;;;15.66;96.60;101235.97;5024509;23;20445;-48
2022/09/25 10:03:11;;;;;;;23.47;22.37;;;;;;;15.73;97.05;101242.97;4987573;28;20439;-51
2022/09/25 10:05:42;;;;;;;24.80;23.60;;;;;;;15.79;96.92;101243.97;4988437;28;20456;-51
2022/09/25 10:08:11;;;;;;;22.43;21.57;;;;;;;15.76;95.57;101236.34;4986221;28;20480;-51
2022/09/25 10:10:40;;;;;;;24.20;23.10;;;;;;;15.79;97.09;101239.41;4989757;28;20541;-47
2022/09/25 10:13:15;;;;;;;23.37;22.23;;;;;;;15.70;94.12;101231.84;4998683;28;20441;-51
2022/09/25 10:15:47;;;;;;;22.53;21.33;;;;;;;15.76;96.54;101230.97;5007932;28;20432;-48
2022/09/25 10:18:16;;;;;;;23.13;22.03;;;;;;;15.82;96.22;101238.97;5007385;28;20437;-52
2022/09/25 10:20:47;;;;;;;22.70;21.47;;;;;;;15.88;94.93;101221.97;4991918;28;20496;-48
2022/09/25 10:23:31;;;;;;;22.70;21.80;;;;;;;16.09;94.18;101223.44;4987903;28;20473;-50
2022/09/25 10:25:59;;;;;;;22.53;21.63;;;;;;;16.09;92.47;101219.91;4988142;28;20988;-46
2022/09/25 10:28:31;;;;;;;21.73;20.87;;;;;;;16.26;91.41;101218.31;4987690;28;20450;-49
2022/09/25 10:31:00;;;;;;;22.83;21.83;;;;;;;16.13;90.96;101224.63;4970387;28;20451;-48
2022/09/25 10:33:30;;;;;;;21.97;21.03;;;;;;;16.38;92.84;101222.72;4987531;28;20959;-48
2022/09/25 10:35:58;;;;;;;21.80;20.70;;;;;;;16.38;88.82;101211.97;4987892;28;20438;-44
2022/09/25 10:38:40;;;;;;;21.20;20.07;;;;;;;16.18;92.74;101211.34;5001887;28;20492;-48
2022/09/25 10:41:11;;;;;;;20.60;19.53;;;;;;;16.22;91.24;101203.66;4995922;28;20490;-45
2022/09/25 10:43:54;;;;;;;20.27;19.33;;;;;;;16.31;90.64;101215.75;4988791;28;20492;-49
2022/09/25 10:50:09;;;;;;;18.80;17.90;;;;;;;16.38;88.98;101203.88;4994292;28;20454;-46
2022/09/25 10:52:16;;;;;;;16.13;15.43;;;;;;;16.13;85.74;101196.91;4975559;28;20978;-47
2022/09/25 10:54:43;;;;;;;15.77;14.97;;;;;;;15.92;85.21;101196.25;4976281;28;20438;-49
2022/09/25 10:57:33;;;;;;;15.10;14.40;;;;;;;15.88;84.50;101192.38;4975581;28;20580;-48
2022/09/25 11:00:04;;;;;;;13.47;12.90;;;;;;;15.90;84.72;101197.53;4975525;28;20838;-49
2022/09/25 11:02:36;;;;;;;13.57;12.87;;;;;;;15.95;83.95;101201.19;4976234;28;20532;-48
2022/09/25 11:05:07;;;;;;;12.23;11.60;;;;;;;16.07;83.35;101190.53;4975481;28;20507;-51
2022/09/25 11:07:35;;;;;;;11.43;11.03;;;;;;;16.10;83.31;101194.69;4975435;28;20438;-49
2022/09/25 11:10:04;;;;;;;10.47;10.07;;;;;;;16.21;83.39;101183.16;4974658;28;20475;-48
2022/09/25 11:12:32;;;;;;;10.13;9.73;;;;;;;16.40;81.78;101182.94;4974127;28;20966;-49
2022/09/25 11:15:04;;;;;;;10.27;9.87;;;;;;;16.39;80.15;101183.19;4975175;28;20446;-52
2022/09/25 11:17:37;;;;;;;11.13;10.43;;;;;;;16.54;81.85;101180.97;4975263;28;20790;-49
2022/09/25 11:20:29;;;;;;;8.80;8.40;;;;;;;16.84;80.29;101172.94;4974358;28;20465;-48
2022/09/25 11:23:05;;;;;;;8.90;8.40;;;;;;;17.05;80.03;101177.84;4971503;28;20433;-49
2022/09/25 11:25:39;;;;;;;8.30;7.70;;;;;;;16.82;76.20;101173.16;4994330;28;20965;-46
2022/09/25 11:28:13;;;;;;;7.97;7.30;;;;;;;16.96;78.19;101171.13;4993981;28;20433;-45
2022/09/25 11:30:48;;;;;;;6.83;6.53;;;;;;;17.17;76.42;101159.84;4994250;28;20450;-47
2022/09/25 11:33:23;;;;;;;6.60;6.40;;;;;;;17.31;76.65;101157.75;4994417;28;20429;-49
2022/09/25 11:35:56;;;;;;;7.23;6.83;;;;;;;17.36;76.51;101157.88;4994374;28;20491;-52
2022/09/25 11:41:25;;;;;;;7.97;7.57;;;;;;;18.14;77.40;101156.59;4993378;28;20485;-50
2022/09/25 11:44:01;;;;;;;7.83;7.33;;;;;;;18.12;72.51;101156.00;4993862;28;20841;-48
2022/09/25 11:46:39;;;;;;;6.00;5.60;;;;;;;17.46;68.41;101161.69;4979569;28;20459;-49
2022/09/25 11:49:16;;;;;;;7.20;6.80;;;;;;;17.65;68.96;101157.06;4962013;28;20820;-46
2022/09/25 11:52:31;;;;;;;7.90;7.30;;;;;;;17.92;68.62;101147.44;4963563;28;20456;-49